createdAt,value
2023-08-08T00:00:25.065Z,8.89
2023-08-08T00:03:25.169Z,8.85
2023-08-08T00:06:25.067Z,8.88
2023-08-08T00:09:25.078Z,8.88
2023-08-08T00:12:25.076Z,8.9
2023-08-08T00:15:25.075Z,8.89
2023-08-08T00:18:25.096Z,8.9
2023-08-08T00:21:25.116Z,8.92
2023-08-08T00:24:25.101Z,8.89
2023-08-08T00:27:25.097Z,8.89
2023-08-08T00:30:25.112Z,8.92
2023-08-08T00:33:25.107Z,8.91
2023-08-08T00:36:25.116Z,8.91
2023-08-08T00:39:25.117Z,8.97
2023-08-08T00:42:25.122Z,8.96
2023-08-08T00:45:25.135Z,8.96
2023-08-08T00:48:25.125Z,8.97
2023-08-08T00:51:25.129Z,8.95
2023-08-08T00:54:25.145Z,9
2023-08-08T00:57:25.153Z,8.95
2023-08-08T01:00:25.146Z,8.98
2023-08-08T01:03:25.188Z,8.98
2023-08-08T01:06:25.184Z,8.99
2023-08-08T01:09:26.473Z,8.98
2023-08-08T01:12:25.174Z,9.03
2023-08-08T01:15:25.163Z,9.06
2023-08-08T01:18:25.177Z,9.01
2023-08-08T01:21:25.177Z,9.11
2023-08-08T01:24:25.175Z,9.04
2023-08-08T01:27:25.211Z,9.09
2023-08-08T01:30:25.193Z,9.13
2023-08-08T01:33:25.189Z,9.12
2023-08-08T01:36:25.194Z,9.18
2023-08-08T01:39:25.226Z,9.2
2023-08-08T01:42:25.210Z,9.15
2023-08-08T01:45:25.210Z,9.24
2023-08-08T01:48:25.207Z,9.23
2023-08-08T01:51:25.216Z,9.25
2023-08-08T01:54:25.215Z,9.25
2023-08-08T01:57:25.221Z,9.26
2023-08-08T02:00:25.233Z,9.28
2023-08-08T02:03:25.290Z,9.27
2023-08-08T02:06:25.239Z,9.3
2023-08-08T02:09:25.245Z,9.3
2023-08-08T02:12:25.255Z,9.35
2023-08-08T02:15:25.255Z,9.34
2023-08-08T02:18:25.288Z,9.37
2023-08-08T02:21:25.276Z,9.33
2023-08-08T02:24:25.274Z,9.33
2023-08-08T02:27:25.268Z,9.35
2023-08-08T02:30:25.270Z,9.35
2023-08-08T02:33:25.283Z,9.3
2023-08-08T02:36:25.294Z,9.33
2023-08-08T02:39:25.287Z,9.35
2023-08-08T02:42:25.292Z,9.36
2023-08-08T02:45:25.305Z,9.42
2023-08-08T02:48:25.307Z,9.42
2023-08-08T02:51:25.310Z,9.36
2023-08-08T02:54:25.326Z,9.37
2023-08-08T02:57:25.329Z,9.4
2023-08-08T03:00:25.333Z,9.47
2023-08-08T03:03:25.337Z,9.47
2023-08-08T03:06:25.339Z,9.45
2023-08-08T03:09:25.333Z,9.48
2023-08-08T03:12:25.335Z,9.44
2023-08-08T03:15:25.348Z,9.49
2023-08-08T03:18:25.370Z,9.49
2023-08-08T03:21:25.359Z,9.5
2023-08-08T03:24:25.353Z,9.5
2023-08-08T03:27:25.357Z,9.51
2023-08-08T03:30:25.379Z,9.52
2023-08-08T03:33:25.377Z,9.5
2023-08-08T03:36:25.378Z,9.58
2023-08-08T03:39:25.385Z,9.57
2023-08-08T03:42:25.390Z,9.56
2023-08-08T03:45:25.398Z,9.63
2023-08-08T03:48:25.402Z,9.64
2023-08-08T03:51:25.407Z,9.63
2023-08-08T03:54:25.415Z,9.68
2023-08-08T03:57:25.438Z,9.74
2023-08-08T04:00:25.420Z,9.72
2023-08-08T04:03:25.450Z,9.76
2023-08-08T04:06:25.428Z,9.81
2023-08-08T04:09:25.436Z,9.79
2023-08-08T04:12:25.432Z,9.84
2023-08-08T04:15:25.449Z,9.84
2023-08-08T04:18:25.450Z,9.88
2023-08-08T04:21:25.451Z,9.91
2023-08-08T04:24:25.452Z,9.96
2023-08-08T04:27:25.458Z,9.94
2023-08-08T04:30:25.455Z,9.96
2023-08-08T04:33:25.456Z,10.02
2023-08-08T04:36:25.471Z,9.99
2023-08-08T04:39:25.471Z,9.98
2023-08-08T04:42:25.473Z,10
2023-08-08T04:45:25.488Z,10
2023-08-08T04:48:25.485Z,10.02
2023-08-08T04:51:25.500Z,10
2023-08-08T04:54:25.498Z,10.06
2023-08-08T04:57:25.510Z,10.04
2023-08-08T05:00:25.500Z,10.02
2023-08-08T05:03:25.557Z,10.09
2023-08-08T05:06:25.520Z,10.08
2023-08-08T05:09:25.513Z,10.05
2023-08-08T05:12:26.188Z,10.1
2023-08-08T05:15:25.530Z,10.14
2023-08-08T05:18:25.530Z,10.11
2023-08-08T05:21:25.528Z,10.1
2023-08-08T05:24:25.542Z,10.14
2023-08-08T05:27:25.556Z,10.16
2023-08-08T05:30:25.541Z,10.2
2023-08-08T05:33:25.548Z,10.19
2023-08-08T05:36:25.550Z,10.24
2023-08-08T05:39:25.571Z,10.26
2023-08-08T05:42:25.614Z,10.29
2023-08-08T05:45:25.566Z,10.28
2023-08-08T05:48:25.577Z,10.32
2023-08-08T05:51:25.580Z,10.33
2023-08-08T05:54:25.584Z,10.43
2023-08-08T05:57:25.581Z,10.52
2023-08-08T06:00:25.588Z,10.5
2023-08-08T06:03:25.641Z,10.5
2023-08-08T06:06:25.594Z,10.46
2023-08-08T06:09:25.599Z,10.41
2023-08-08T06:12:25.606Z,10.46
2023-08-08T06:15:25.602Z,10.43
2023-08-08T06:18:25.604Z,10.36
2023-08-08T06:21:25.614Z,10.46
2023-08-08T06:24:25.620Z,10.46
2023-08-08T06:27:25.629Z,10.58
2023-08-08T06:30:25.625Z,10.59
2023-08-08T06:33:25.624Z,10.58
2023-08-08T06:36:25.632Z,10.79
2023-08-08T06:39:25.640Z,10.9
2023-08-08T06:42:25.639Z,10.83
2023-08-08T06:45:25.645Z,10.78
2023-08-08T06:48:25.654Z,10.91
2023-08-08T06:51:25.671Z,10.94
2023-08-08T06:54:25.660Z,10.9
2023-08-08T06:57:25.657Z,10.93
2023-08-08T07:00:25.672Z,10.94
2023-08-08T07:03:25.735Z,10.92
2023-08-08T07:06:25.675Z,10.91
2023-08-08T07:09:25.707Z,10.82
2023-08-08T07:12:25.683Z,10.8
2023-08-08T07:15:25.701Z,10.79
2023-08-08T07:18:25.695Z,10.77
2023-08-08T07:21:25.693Z,10.87
2023-08-08T07:24:25.702Z,10.85
2023-08-08T07:27:25.711Z,10.81
2023-08-08T07:30:25.717Z,10.95
2023-08-08T07:33:25.711Z,10.95
2023-08-08T07:36:25.720Z,10.84
2023-08-08T07:39:25.742Z,10.86
2023-08-08T07:42:25.716Z,10.75
2023-08-08T07:45:25.721Z,10.63
2023-08-08T07:48:25.726Z,10.57
2023-08-08T07:51:25.733Z,10.48
2023-08-08T07:54:25.736Z,10.6
2023-08-08T07:57:25.724Z,10.55
2023-08-08T08:00:25.724Z,10.71
2023-08-08T08:03:25.795Z,10.7
2023-08-08T08:06:25.746Z,10.79
2023-08-08T08:09:25.745Z,10.76
2023-08-08T08:12:25.750Z,10.99
2023-08-08T08:15:25.761Z,11.11
2023-08-08T08:18:25.777Z,10.99
2023-08-08T08:21:25.769Z,10.63
2023-08-08T08:24:25.779Z,10.5
2023-08-08T08:27:25.791Z,10.53
2023-08-08T08:30:25.813Z,10.67
2023-08-08T08:33:25.821Z,10.82
2023-08-08T08:36:25.830Z,10.62
2023-08-08T08:39:25.849Z,10.51
2023-08-08T08:42:25.853Z,10.57
2023-08-08T08:45:25.849Z,10.4
2023-08-08T08:48:25.872Z,10.29
2023-08-08T08:51:25.864Z,10.33
2023-08-08T08:54:25.873Z,10.15
2023-08-08T08:57:25.895Z,10.07
2023-08-08T09:00:25.894Z,10.04
2023-08-08T09:03:25.982Z,10.11
2023-08-08T09:06:25.894Z,10.32
2023-08-08T09:09:25.897Z,10.3
2023-08-08T09:12:25.906Z,10.57
2023-08-08T09:15:25.939Z,10.58
2023-08-08T09:18:25.973Z,10.72
2023-08-08T09:21:25.918Z,10.65
2023-08-08T09:24:25.929Z,10.65
2023-08-08T09:27:25.931Z,10.47
2023-08-08T09:30:26.000Z,10.71
2023-08-08T09:33:25.982Z,10.63
2023-08-08T09:36:25.959Z,10.45
2023-08-08T09:39:25.952Z,10.58
2023-08-08T09:42:25.963Z,10.48
2023-08-08T09:45:25.976Z,10.56
2023-08-08T09:48:25.970Z,10.43
2023-08-08T09:51:25.979Z,10.1
2023-08-08T09:54:25.978Z,10.22
2023-08-08T09:57:25.986Z,10.16
2023-08-08T10:00:25.974Z,9.95
2023-08-08T10:03:26.050Z,9.78
2023-08-08T10:06:25.984Z,9.86
2023-08-08T10:09:26.006Z,10
2023-08-08T10:12:26.008Z,9.93
2023-08-08T10:15:26.014Z,9.67
2023-08-08T10:18:26.019Z,9.7
2023-08-08T10:21:26.011Z,9.64
2023-08-08T10:24:26.024Z,10.31
2023-08-08T10:27:26.024Z,10.78
2023-08-08T10:30:26.030Z,10.54
2023-08-08T10:33:26.045Z,10.41
2023-08-08T10:36:26.041Z,10.18
2023-08-08T10:39:26.076Z,10.1
2023-08-08T10:42:26.053Z,10.21
2023-08-08T10:45:26.061Z,10.45
2023-08-08T10:48:26.073Z,10.79
2023-08-08T10:51:26.084Z,11.07
2023-08-08T10:54:26.078Z,10.47
2023-08-08T10:57:26.102Z,10.55
2023-08-08T11:00:26.099Z,10.84
2023-08-08T11:03:26.093Z,10.86
2023-08-08T11:06:26.113Z,10.65
2023-08-08T11:09:26.100Z,10.63
2023-08-08T11:12:26.106Z,10.65
2023-08-08T11:15:26.116Z,10.81
2023-08-08T11:18:26.159Z,10.96
2023-08-08T11:21:26.107Z,10.96
2023-08-08T11:24:26.122Z,10.57
2023-08-08T11:30:26.130Z,10.34
2023-08-08T11:33:26.158Z,10.35
2023-08-08T11:36:26.133Z,10.33
2023-08-08T11:39:26.139Z,10.18
2023-08-08T11:42:26.143Z,10.14
2023-08-08T11:45:26.189Z,10.53
2023-08-08T11:48:26.150Z,10.57
2023-08-08T11:51:26.162Z,10.68
2023-08-08T11:54:26.155Z,10.87
2023-08-08T11:57:26.182Z,10.96
2023-08-08T12:00:26.172Z,10.85
2023-08-08T12:03:26.184Z,10.98
2023-08-08T12:06:26.178Z,11.07
2023-08-08T12:09:26.174Z,11.25
2023-08-08T12:12:26.190Z,11.29
2023-08-08T12:15:26.194Z,11.4
2023-08-08T12:18:26.186Z,11.4
2023-08-08T12:21:26.187Z,11.35
2023-08-08T12:24:26.203Z,10.67
2023-08-08T12:27:26.196Z,10.45
2023-08-08T12:30:26.216Z,10.49
2023-08-08T12:33:26.207Z,10.46
2023-08-08T12:36:26.217Z,9.95
2023-08-08T12:39:26.214Z,10.29
2023-08-08T12:42:26.249Z,10.35
2023-08-08T12:45:26.222Z,10.14
2023-08-08T12:48:26.229Z,9.92
2023-08-08T12:51:26.231Z,9.86
2023-08-08T12:54:26.238Z,10.57
2023-08-08T12:57:26.249Z,11.26
2023-08-08T13:00:26.254Z,11.37
2023-08-08T13:03:26.265Z,11.37
2023-08-08T13:06:26.265Z,11.19
2023-08-08T13:09:26.260Z,10.96
2023-08-08T13:12:26.274Z,10.35
2023-08-08T13:15:26.270Z,10.02
2023-08-08T13:18:26.268Z,10.11
2023-08-08T13:21:26.278Z,10.04
2023-08-08T13:24:26.281Z,10.07
2023-08-08T13:27:26.293Z,10.03
2023-08-08T13:30:26.321Z,10.19
2023-08-08T13:33:26.299Z,10.34
2023-08-08T13:36:26.309Z,10.43
2023-08-08T13:39:26.313Z,10.08
2023-08-08T13:42:26.502Z,10.72
2023-08-08T13:45:26.352Z,11.58
2023-08-08T13:48:26.343Z,11.27
2023-08-08T13:51:26.333Z,10.88
2023-08-08T13:54:26.336Z,10.97
2023-08-08T13:57:26.339Z,10.92
2023-08-08T14:00:26.345Z,10.96
2023-08-08T14:03:26.397Z,10.74
2023-08-08T14:06:26.356Z,11.3
2023-08-08T14:09:26.354Z,10.9
2023-08-08T14:12:26.361Z,10.97
2023-08-08T14:15:26.374Z,11.05
2023-08-08T14:18:26.369Z,11.23
2023-08-08T14:21:26.362Z,11.32
2023-08-08T14:24:26.380Z,11.26
2023-08-08T14:27:26.385Z,11.2
2023-08-08T14:30:26.390Z,11.29
2023-08-08T14:33:26.388Z,11.42
2023-08-08T14:36:26.386Z,11.52
2023-08-08T14:39:26.394Z,11.48
2023-08-08T14:42:26.408Z,11.59
2023-08-08T14:45:26.445Z,11.56
2023-08-08T14:48:26.410Z,11.59
2023-08-08T14:51:26.417Z,11.47
2023-08-08T14:54:26.424Z,11.44
2023-08-08T14:57:26.428Z,11.37
2023-08-08T15:00:26.431Z,11.28
2023-08-08T15:03:26.506Z,11.18
2023-08-08T15:06:26.443Z,11.03
2023-08-08T15:09:26.444Z,11.13
2023-08-08T15:12:26.453Z,11.09
2023-08-08T15:15:26.443Z,11
2023-08-08T15:18:26.457Z,11.03
2023-08-08T15:21:26.457Z,11.06
2023-08-08T15:24:26.457Z,11.01
2023-08-08T15:27:26.469Z,11.11
2023-08-08T15:30:26.472Z,11.11
2023-08-08T15:33:26.483Z,11.33
2023-08-08T15:36:26.473Z,11.22
2023-08-08T15:39:26.487Z,11.11
2023-08-08T15:42:26.490Z,11.03
2023-08-08T15:45:26.512Z,11.08
2023-08-08T15:48:26.511Z,11.22
2023-08-08T15:51:26.497Z,11.37
2023-08-08T15:54:26.505Z,11.32
2023-08-08T15:57:26.514Z,11.21
2023-08-08T16:00:26.511Z,10.8
2023-08-08T16:03:26.571Z,10.8
2023-08-08T16:06:26.524Z,10.62
2023-08-08T16:09:26.535Z,10.5
2023-08-08T16:12:26.537Z,10.4
2023-08-08T16:15:26.554Z,10.28
2023-08-08T16:18:26.542Z,10.35
2023-08-08T16:21:26.554Z,10.23
2023-08-08T16:24:26.552Z,10.18
2023-08-08T16:27:26.575Z,10.35
2023-08-08T16:30:26.566Z,10.27
2023-08-08T16:33:26.569Z,10.2
2023-08-08T16:36:26.587Z,10.3
2023-08-08T16:39:26.591Z,10.33
2023-08-08T16:42:26.592Z,10.33
2023-08-08T16:45:26.597Z,10.23
2023-08-08T16:48:26.646Z,10.3
2023-08-08T16:51:26.593Z,10.31
2023-08-08T16:54:26.601Z,10.37
2023-08-08T16:57:26.603Z,10.31
2023-08-08T17:00:26.659Z,10.1
2023-08-08T17:03:26.653Z,10.18
2023-08-08T17:06:26.621Z,10.06
2023-08-08T17:09:26.612Z,10.13
2023-08-08T17:12:26.624Z,10.01
2023-08-08T17:15:26.634Z,10.12
2023-08-08T17:18:26.630Z,10.15
2023-08-08T17:21:26.642Z,10.1
2023-08-08T17:24:32.232Z,10.09
2023-08-08T17:27:26.656Z,10.13
2023-08-08T17:30:26.647Z,10.07
2023-08-08T17:33:26.656Z,10.03
2023-08-08T17:36:26.665Z,9.97
2023-08-08T17:39:26.681Z,9.98
2023-08-08T17:42:26.678Z,9.88
2023-08-08T17:45:26.672Z,9.97
2023-08-08T17:48:26.673Z,9.88
2023-08-08T17:51:26.686Z,9.81
2023-08-08T17:54:26.681Z,9.81
2023-08-08T17:57:26.698Z,9.81
2023-08-08T18:00:26.706Z,9.84
2023-08-08T18:03:26.728Z,9.78
2023-08-08T18:06:26.698Z,9.85
2023-08-08T18:09:26.702Z,9.81
2023-08-08T18:12:26.709Z,9.84
2023-08-08T18:15:26.735Z,9.82
2023-08-08T18:18:26.724Z,9.85
2023-08-08T18:21:26.714Z,9.86
2023-08-08T18:24:26.737Z,9.81
2023-08-08T18:27:26.726Z,9.87
2023-08-08T18:30:26.740Z,9.84
2023-08-08T18:33:26.736Z,9.86
2023-08-08T18:36:26.733Z,9.79
2023-08-08T18:39:26.752Z,9.85
2023-08-08T18:42:26.753Z,9.83
2023-08-08T18:45:26.768Z,9.81
2023-08-08T18:48:26.764Z,9.84
2023-08-08T18:51:26.770Z,9.86
2023-08-08T18:54:26.793Z,9.82
2023-08-08T18:57:26.768Z,9.84
2023-08-08T19:00:26.781Z,9.87
2023-08-08T19:03:26.850Z,9.92
2023-08-08T19:06:26.800Z,9.9
2023-08-08T19:09:26.792Z,9.98
2023-08-08T19:12:26.803Z,10.04
2023-08-08T19:15:26.798Z,10.07
2023-08-08T19:18:26.824Z,10.08
2023-08-08T19:21:26.802Z,10.11
2023-08-08T19:24:26.812Z,10.1
2023-08-08T19:27:26.821Z,10.1
2023-08-08T19:30:26.833Z,10.14
2023-08-08T19:33:26.827Z,10.09
2023-08-08T19:36:26.828Z,10.04
2023-08-08T19:39:26.837Z,10.06
2023-08-08T19:42:26.845Z,10.09
2023-08-08T19:45:26.844Z,10.11
2023-08-08T19:48:26.847Z,10.16
2023-08-08T19:51:26.888Z,10.18
2023-08-08T19:54:26.856Z,10.16
2023-08-08T19:57:26.997Z,10.12
2023-08-08T20:00:26.862Z,10.1
2023-08-08T20:03:26.944Z,10.08
2023-08-08T20:06:26.872Z,10.08
2023-08-08T20:09:26.880Z,10.07
2023-08-08T20:12:26.888Z,9.97
2023-08-08T20:15:26.890Z,9.97
2023-08-08T20:18:26.886Z,10.03
2023-08-08T20:21:26.895Z,10.02
2023-08-08T20:24:26.897Z,10
2023-08-08T20:27:26.893Z,9.98
2023-08-08T20:30:26.934Z,10.04
2023-08-08T20:33:26.960Z,10.01
2023-08-08T20:36:26.923Z,10.04
2023-08-08T20:39:26.949Z,10.11
2023-08-08T20:42:26.926Z,10.09
2023-08-08T20:45:26.963Z,10.16
2023-08-08T20:48:26.994Z,10.11
2023-08-08T20:51:26.948Z,10.12
2023-08-08T20:54:26.973Z,10.16
2023-08-08T20:57:26.992Z,10.18
2023-08-08T21:00:26.984Z,10.14
2023-08-08T21:03:27.025Z,10.21
2023-08-08T21:06:26.967Z,10.15
2023-08-08T21:09:26.970Z,10.18
2023-08-08T21:12:26.983Z,10.17
2023-08-08T21:15:26.994Z,10.19
2023-08-08T21:18:26.987Z,10.17
2023-08-08T21:21:26.987Z,10.25
2023-08-08T21:24:26.986Z,10.23
2023-08-08T21:27:26.996Z,10.17
2023-08-08T21:30:27.013Z,10.19
2023-08-08T21:33:26.995Z,10.17
2023-08-08T21:36:27.034Z,10.24
2023-08-08T21:39:27.009Z,10.2
2023-08-08T21:42:27.007Z,10.29
2023-08-08T21:45:27.016Z,10.27
2023-08-08T21:48:27.021Z,10.32
2023-08-08T21:51:27.043Z,10.29
2023-08-08T21:54:27.021Z,10.33
2023-08-08T21:57:27.026Z,10.39
2023-08-08T22:00:27.111Z,10.43
2023-08-08T22:03:27.059Z,10.41
2023-08-08T22:06:27.041Z,10.4
2023-08-08T22:09:27.042Z,10.4
2023-08-08T22:15:27.048Z,10.41
2023-08-08T22:18:27.083Z,10.4
2023-08-08T22:21:27.047Z,10.4
2023-08-08T22:24:27.053Z,10.38
2023-08-08T22:27:27.052Z,10.37
2023-08-08T22:30:27.096Z,10.35
2023-08-08T22:33:27.080Z,10.35
2023-08-08T22:36:27.093Z,10.33
2023-08-08T22:39:27.070Z,10.32
2023-08-08T22:42:27.107Z,10.29
2023-08-08T22:45:27.125Z,10.33
2023-08-08T22:48:27.144Z,10.32
2023-08-08T22:51:27.130Z,10.25
2023-08-08T22:54:27.160Z,10.27
2023-08-08T22:57:27.150Z,10.22
2023-08-08T23:00:27.157Z,10.21
2023-08-08T23:03:27.227Z,10.22
2023-08-08T23:06:27.168Z,10.21
2023-08-08T23:09:27.159Z,10.21
2023-08-08T23:12:27.167Z,10.15
2023-08-08T23:15:27.176Z,10.16
2023-08-08T23:18:27.212Z,10.17
2023-08-08T23:21:27.193Z,10.18
2023-08-08T23:24:27.203Z,10.13
2023-08-08T23:27:27.209Z,10.21
2023-08-08T23:30:27.210Z,10.22
2023-08-08T23:33:27.224Z,10.22
2023-08-08T23:36:27.220Z,10.22
2023-08-08T23:39:27.240Z,10.21
2023-08-08T23:42:27.242Z,10.22
2023-08-08T23:45:27.232Z,10.17
2023-08-08T23:48:27.254Z,10.24
2023-08-08T23:51:27.253Z,10.24
2023-08-08T23:54:27.258Z,10.23
2023-08-08T23:57:27.266Z,10.22
